Terminal Aerodrome Forecast
Issued by NWS Cleveland, OH

Home | Current Version | Previous Version | Graphics & Text | Print | Product List | Glossary On
Versions: 1 2 3 4 5 6 7 8 9 10 11 12 13 14 15 16 17 18 19 20
167
FTUS41 KCLE 151258 AAA
TAFTOL
TAF AMD
KTOL 151258Z 1513/1612 26007KT P6SM SCT040
     FM151800 26006KT P6SM BKN045
     FM152200 30005KT P6SM SCT045
     FM160300 05004KT P6SM SCT250=

USA.gov is the U.S. government's official web portal to all federal, state and local government web resources and services.